sensor_id;sensor_type;location;lat;lon;timestamp;pressure;altitude;pressure_sealevel;temperature;humidity
70009;BME280;59542;37.950;-122.338;2023-02-04T00:01:47;102190.78;;;11.11;91.01
70009;BME280;59542;37.950;-122.338;2023-02-04T00:04:13;102185.13;;;11.29;89.81
70009;BME280;59542;37.950;-122.338;2023-02-04T00:06:40;102186.28;;;11.26;89.65
70009;BME280;59542;37.950;-122.338;2023-02-04T00:09:06;102184.91;;;11.39;88.77
70009;BME280;59542;37.950;-122.338;2023-02-04T00:11:32;102191.84;;;10.94;91.21
70009;BME280;59542;37.950;-122.338;2023-02-04T00:13:59;102182.53;;;10.81;92.11
70009;BME280;59542;37.950;-122.338;2023-02-04T00:16:25;102175.50;;;10.80;92.43
70009;BME280;59542;37.950;-122.338;2023-02-04T00:18:51;102166.66;;;11.11;91.94
70009;BME280;59542;37.950;-122.338;2023-02-04T00:21:18;102170.09;;;11.20;91.29
70009;BME280;59542;37.950;-122.338;2023-02-04T00:23:44;102164.28;;;11.39;91.21
70009;BME280;59542;37.950;-122.338;2023-02-04T00:26:10;102167.97;;;11.61;89.73
70009;BME280;59542;37.950;-122.338;2023-02-04T00:28:36;102165.44;;;11.59;90.02
70009;BME280;59542;37.950;-122.338;2023-02-04T00:31:02;102169.31;;;11.80;88.74
70009;BME280;59542;37.950;-122.338;2023-02-04T00:33:29;102172.59;;;11.67;89.31
70009;BME280;59542;37.950;-122.338;2023-02-04T00:35:55;102168.91;;;11.68;89.40
70009;BME280;59542;37.950;-122.338;2023-02-04T00:38:21;102172.66;;;11.59;89.38
70009;BME280;59542;37.950;-122.338;2023-02-04T00:40:47;102172.16;;;11.78;88.59
70009;BME280;59542;37.950;-122.338;2023-02-04T00:43:14;102162.91;;;11.66;88.41
70009;BME280;59542;37.950;-122.338;2023-02-04T00:45:40;102164.84;;;11.72;89.32
70009;BME280;59542;37.950;-122.338;2023-02-04T00:48:06;102166.09;;;11.84;87.80
70009;BME280;59542;37.950;-122.338;2023-02-04T00:50:33;102169.25;;;11.88;88.27
70009;BME280;59542;37.950;-122.338;2023-02-04T00:53:05;102174.59;;;12.11;86.84
70009;BME280;59542;37.950;-122.338;2023-02-04T00:55:31;102177.25;;;12.26;86.97
70009;BME280;59542;37.950;-122.338;2023-02-04T00:57:58;102171.41;;;12.37;85.41
70009;BME280;59542;37.950;-122.338;2023-02-04T01:00:24;102162.06;;;12.03;86.57
70009;BME280;59542;37.950;-122.338;2023-02-04T01:02:50;102165.38;;;11.91;87.82
70009;BME280;59542;37.950;-122.338;2023-02-04T01:05:17;102166.59;;;12.03;87.17
70009;BME280;59542;37.950;-122.338;2023-02-04T01:07:43;102160.13;;;12.12;86.57
70009;BME280;59542;37.950;-122.338;2023-02-04T01:10:10;102162.53;;;12.07;87.08
70009;BME280;59542;37.950;-122.338;2023-02-04T01:12:36;102166.69;;;12.09;86.69
70009;BME280;59542;37.950;-122.338;2023-02-04T01:15:04;102159.97;;;12.28;86.24
70009;BME280;59542;37.950;-122.338;2023-02-04T01:17:30;102160.13;;;12.41;85.32
70009;BME280;59542;37.950;-122.338;2023-02-04T01:19:56;102161.78;;;12.42;85.05
70009;BME280;59542;37.950;-122.338;2023-02-04T01:22:22;102154.59;;;12.28;85.39
70009;BME280;59542;37.950;-122.338;2023-02-04T01:24:48;102154.97;;;12.10;85.92
70009;BME280;59542;37.950;-122.338;2023-02-04T01:27:15;102156.44;;;12.13;86.44
70009;BME280;59542;37.950;-122.338;2023-02-04T01:29:41;102161.16;;;12.26;85.64
70009;BME280;59542;37.950;-122.338;2023-02-04T01:32:07;102155.78;;;12.26;85.46
70009;BME280;59542;37.950;-122.338;2023-02-04T01:34:34;102164.03;;;12.24;85.74
70009;BME280;59542;37.950;-122.338;2023-02-04T01:37:00;102159.66;;;12.08;86.10
70009;BME280;59542;37.950;-122.338;2023-02-04T01:39:26;102163.47;;;12.14;86.46
70009;BME280;59542;37.950;-122.338;2023-02-04T01:41:52;102166.78;;;12.01;87.24
70009;BME280;59542;37.950;-122.338;2023-02-04T01:44:19;102155.03;;;12.02;86.45
70009;BME280;59542;37.950;-122.338;2023-02-04T01:46:45;102159.63;;;11.94;86.33
70009;BME280;59542;37.950;-122.338;2023-02-04T01:49:12;102163.44;;;11.76;87.47
70009;BME280;59542;37.950;-122.338;2023-02-04T01:51:38;102159.56;;;12.02;86.56
70009;BME280;59542;37.950;-122.338;2023-02-04T01:54:05;102155.66;;;11.89;86.85
70009;BME280;59542;37.950;-122.338;2023-02-04T01:56:34;102166.84;;;11.93;86.96
70009;BME280;59542;37.950;-122.338;2023-02-04T01:59:00;102166.69;;;11.95;86.97
70009;BME280;59542;37.950;-122.338;2023-02-04T02:01:41;102166.06;;;12.07;85.96
70009;BME280;59542;37.950;-122.338;2023-02-04T02:04:11;102159.22;;;12.05;86.48
70009;BME280;59542;37.950;-122.338;2023-02-04T02:06:42;102165.41;;;12.05;85.50
70009;BME280;59542;37.950;-122.338;2023-02-04T02:09:09;102165.22;;;12.07;85.65
70009;BME280;59542;37.950;-122.338;2023-02-04T02:11:36;102162.16;;;12.10;85.80
70009;BME280;59542;37.950;-122.338;2023-02-04T02:14:02;102166.72;;;12.24;85.08
70009;BME280;59542;37.950;-122.338;2023-02-04T02:16:29;102175.66;;;12.02;85.75
70009;BME280;59542;37.950;-122.338;2023-02-04T02:18:55;102173.19;;;12.00;86.45
70009;BME280;59542;37.950;-122.338;2023-02-04T02:21:32;102178.16;;;12.03;86.24
70009;BME280;59542;37.950;-122.338;2023-02-04T02:24:03;102176.31;;;12.04;86.43
70009;BME280;59542;37.950;-122.338;2023-02-04T02:26:46;102176.03;;;11.99;86.47
70009;BME280;59542;37.950;-122.338;2023-02-04T02:29:12;102170.66;;;11.99;87.13
70009;BME280;59542;37.950;-122.338;2023-02-04T02:31:38;102170.56;;;11.92;87.28
70009;BME280;59542;37.950;-122.338;2023-02-04T02:34:04;102164.47;;;11.75;87.55
70009;BME280;59542;37.950;-122.338;2023-02-04T02:36:31;102169.94;;;11.67;88.84
70009;BME280;59542;37.950;-122.338;2023-02-04T02:38:57;102163.16;;;11.71;88.63
70009;BME280;59542;37.950;-122.338;2023-02-04T02:41:24;102159.72;;;11.85;87.85
70009;BME280;59542;37.950;-122.338;2023-02-04T02:43:51;102151.34;;;11.80;88.45
70009;BME280;59542;37.950;-122.338;2023-02-04T02:46:17;102153.41;;;11.78;88.54
70009;BME280;59542;37.950;-122.338;2023-02-04T02:48:43;102145.69;;;11.75;89.06
70009;BME280;59542;37.950;-122.338;2023-02-04T02:51:10;102143.31;;;11.80;88.85
70009;BME280;59542;37.950;-122.338;2023-02-04T02:53:36;102137.53;;;11.92;87.91
70009;BME280;59542;37.950;-122.338;2023-02-04T02:56:02;102143.28;;;11.88;87.53
70009;BME280;59542;37.950;-122.338;2023-02-04T02:58:32;102139.56;;;11.89;87.97
70009;BME280;59542;37.950;-122.338;2023-02-04T03:01:01;102137.00;;;11.73;88.45
70009;BME280;59542;37.950;-122.338;2023-02-04T03:03:30;102138.00;;;11.57;89.70
70009;BME280;59542;37.950;-122.338;2023-02-04T03:06:05;102142.38;;;11.73;89.04
70009;BME280;59542;37.950;-122.338;2023-02-04T03:08:33;102136.22;;;11.50;90.11
70009;BME280;59542;37.950;-122.338;2023-02-04T03:11:00;102134.44;;;11.80;89.23
70009;BME280;59542;37.950;-122.338;2023-02-04T03:13:26;102128.59;;;11.76;89.27
70009;BME280;59542;37.950;-122.338;2023-02-04T03:15:53;102134.94;;;11.83;89.53
70009;BME280;59542;37.950;-122.338;2023-02-04T03:18:20;102132.91;;;11.85;88.95
70009;BME280;59542;37.950;-122.338;2023-02-04T03:20:48;102131.06;;;12.01;88.23
70009;BME280;59542;37.950;-122.338;2023-02-04T03:23:15;102132.09;;;11.77;88.63
70009;BME280;59542;37.950;-122.338;2023-02-04T03:25:42;102136.06;;;11.43;90.20
70009;BME280;59542;37.950;-122.338;2023-02-04T03:28:09;102133.41;;;11.43;90.54
70009;BME280;59542;37.950;-122.338;2023-02-04T03:30:35;102134.47;;;11.57;90.30
70009;BME280;59542;37.950;-122.338;2023-02-04T03:33:02;102124.69;;;11.64;89.66
70009;BME280;59542;37.950;-122.338;2023-02-04T03:35:28;102125.25;;;11.74;89.23
70009;BME280;59542;37.950;-122.338;2023-02-04T03:37:54;102127.94;;;12.12;86.90
70009;BME280;59542;37.950;-122.338;2023-02-04T03:40:21;102126.00;;;12.06;87.15
70009;BME280;59542;37.950;-122.338;2023-02-04T03:42:47;102126.34;;;11.65;88.14
70009;BME280;59542;37.950;-122.338;2023-02-04T03:45:13;102127.06;;;11.82;88.13
70009;BME280;59542;37.950;-122.338;2023-02-04T03:47:39;102117.47;;;12.17;86.06
70009;BME280;59542;37.950;-122.338;2023-02-04T03:50:06;102118.38;;;12.09;86.28
70009;BME280;59542;37.950;-122.338;2023-02-04T03:52:32;102122.47;;;12.05;86.19
70009;BME280;59542;37.950;-122.338;2023-02-04T03:54:58;102131.91;;;12.16;86.18
70009;BME280;59542;37.950;-122.338;2023-02-04T03:57:24;102127.16;;;12.03;86.69
70009;BME280;59542;37.950;-122.338;2023-02-04T03:59:51;102133.66;;;12.09;86.93
70009;BME280;59542;37.950;-122.338;2023-02-04T04:02:17;102142.09;;;12.06;86.59
70009;BME280;59542;37.950;-122.338;2023-02-04T04:04:43;102133.22;;;12.05;86.82
70009;BME280;59542;37.950;-122.338;2023-02-04T04:07:09;102140.69;;;12.10;86.57
70009;BME280;59542;37.950;-122.338;2023-02-04T04:09:35;102142.75;;;12.23;85.65
70009;BME280;59542;37.950;-122.338;2023-02-04T04:12:02;102147.81;;;12.03;86.18
70009;BME280;59542;37.950;-122.338;2023-02-04T04:14:29;102149.47;;;11.89;86.88
70009;BME280;59542;37.950;-122.338;2023-02-04T04:16:55;102146.06;;;11.34;89.17
70009;BME280;59542;37.950;-122.338;2023-02-04T04:19:21;102151.94;;;11.30;89.61
70009;BME280;59542;37.950;-122.338;2023-02-04T04:21:49;102152.13;;;11.51;89.12
70009;BME280;59542;37.950;-122.338;2023-02-04T04:24:15;102143.25;;;11.66;88.58
70009;BME280;59542;37.950;-122.338;2023-02-04T04:26:41;102143.00;;;11.75;87.34
70009;BME280;59542;37.950;-122.338;2023-02-04T04:29:08;102136.81;;;12.12;85.57
70009;BME280;59542;37.950;-122.338;2023-02-04T04:31:34;102142.13;;;11.60;87.63
70009;BME280;59542;37.950;-122.338;2023-02-04T04:34:00;102139.19;;;11.32;88.65
70009;BME280;59542;37.950;-122.338;2023-02-04T04:36:26;102137.25;;;11.63;87.55
70009;BME280;59542;37.950;-122.338;2023-02-04T04:38:53;102135.66;;;11.54;87.95
70009;BME280;59542;37.950;-122.338;2023-02-04T04:41:19;102133.78;;;11.78;86.97
70009;BME280;59542;37.950;-122.338;2023-02-04T04:43:45;102127.19;;;11.88;85.82
70009;BME280;59542;37.950;-122.338;2023-02-04T04:46:11;102121.91;;;12.10;85.40
70009;BME280;59542;37.950;-122.338;2023-02-04T04:48:38;102124.75;;;11.94;85.54
70009;BME280;59542;37.950;-122.338;2023-02-04T04:51:04;102128.38;;;12.01;85.23
70009;BME280;59542;37.950;-122.338;2023-02-04T04:53:30;102127.09;;;11.97;85.29
70009;BME280;59542;37.950;-122.338;2023-02-04T04:55:57;102133.03;;;12.22;84.23
70009;BME280;59542;37.950;-122.338;2023-02-04T04:58:23;102129.22;;;12.01;85.38
70009;BME280;59542;37.950;-122.338;2023-02-04T05:00:49;102132.00;;;12.08;85.19
70009;BME280;59542;37.950;-122.338;2023-02-04T05:03:15;102137.28;;;12.16;85.17
70009;BME280;59542;37.950;-122.338;2023-02-04T05:05:41;102134.38;;;12.32;84.42
70009;BME280;59542;37.950;-122.338;2023-02-04T05:08:09;102143.47;;;12.31;84.50
70009;BME280;59542;37.950;-122.338;2023-02-04T05:10:39;102137.91;;;12.48;83.63
70009;BME280;59542;37.950;-122.338;2023-02-04T05:13:05;102137.47;;;12.44;82.35
70009;BME280;59542;37.950;-122.338;2023-02-04T05:15:32;102135.28;;;12.54;82.37
70009;BME280;59542;37.950;-122.338;2023-02-04T05:17:58;102132.50;;;12.77;81.87
70009;BME280;59542;37.950;-122.338;2023-02-04T05:20:25;102134.75;;;12.59;82.12
70009;BME280;59542;37.950;-122.338;2023-02-04T05:22:51;102139.41;;;12.50;82.55
70009;BME280;59542;37.950;-122.338;2023-02-04T05:25:18;102145.41;;;12.52;82.54
70009;BME280;59542;37.950;-122.338;2023-02-04T05:27:44;102143.66;;;12.45;82.91
70009;BME280;59542;37.950;-122.338;2023-02-04T05:30:11;102145.31;;;12.46;82.79
70009;BME280;59542;37.950;-122.338;2023-02-04T05:32:38;102146.34;;;12.30;83.31
70009;BME280;59542;37.950;-122.338;2023-02-04T05:35:05;102154.28;;;12.38;83.18
70009;BME280;59542;37.950;-122.338;2023-02-04T05:37:32;102155.69;;;12.49;83.16
70009;BME280;59542;37.950;-122.338;2023-02-04T05:39:58;102148.28;;;12.51;82.86
70009;BME280;59542;37.950;-122.338;2023-02-04T05:42:24;102149.03;;;12.45;82.91
70009;BME280;59542;37.950;-122.338;2023-02-04T05:44:51;102155.59;;;12.72;82.35
70009;BME280;59542;37.950;-122.338;2023-02-04T05:47:17;102156.31;;;12.65;82.02
70009;BME280;59542;37.950;-122.338;2023-02-04T05:49:45;102152.41;;;12.83;80.82
70009;BME280;59542;37.950;-122.338;2023-02-04T05:52:11;102152.44;;;12.68;81.92
70009;BME280;59542;37.950;-122.338;2023-02-04T05:54:37;102148.72;;;12.54;81.99
70009;BME280;59542;37.950;-122.338;2023-02-04T05:57:04;102142.22;;;12.78;81.24
70009;BME280;59542;37.950;-122.338;2023-02-04T05:59:30;102146.66;;;12.71;81.02
70009;BME280;59542;37.950;-122.338;2023-02-04T06:01:56;102159.94;;;12.58;81.63
70009;BME280;59542;37.950;-122.338;2023-02-04T06:04:23;102148.09;;;12.52;82.03
70009;BME280;59542;37.950;-122.338;2023-02-04T06:06:49;102144.94;;;12.49;82.05
70009;BME280;59542;37.950;-122.338;2023-02-04T06:09:15;102143.75;;;12.51;82.08
70009;BME280;59542;37.950;-122.338;2023-02-04T06:11:41;102142.25;;;12.49;82.27
70009;BME280;59542;37.950;-122.338;2023-02-04T06:14:07;102135.88;;;12.50;82.27
70009;BME280;59542;37.950;-122.338;2023-02-04T06:16:35;102124.13;;;12.51;82.27
70009;BME280;59542;37.950;-122.338;2023-02-04T06:19:02;102132.16;;;12.51;82.21
70009;BME280;59542;37.950;-122.338;2023-02-04T06:21:28;102130.59;;;12.56;82.02
70009;BME280;59542;37.950;-122.338;2023-02-04T06:23:55;102127.06;;;12.56;81.98
70009;BME280;59542;37.950;-122.338;2023-02-04T06:26:21;102118.75;;;12.51;82.10
70009;BME280;59542;37.950;-122.338;2023-02-04T06:28:47;102119.19;;;12.90;81.04
70009;BME280;59542;37.950;-122.338;2023-02-04T06:31:13;102113.31;;;13.02;80.02
70009;BME280;59542;37.950;-122.338;2023-02-04T06:33:40;102110.19;;;12.98;79.61
70009;BME280;59542;37.950;-122.338;2023-02-04T06:36:06;102127.91;;;12.56;80.89
70009;BME280;59542;37.950;-122.338;2023-02-04T06:38:32;102133.38;;;12.19;82.59
70009;BME280;59542;37.950;-122.338;2023-02-04T06:40:59;102128.47;;;12.37;82.59
70009;BME280;59542;37.950;-122.338;2023-02-04T06:43:25;102118.91;;;12.49;82.09
70009;BME280;59542;37.950;-122.338;2023-02-04T06:45:52;102108.09;;;12.42;82.04
70009;BME280;59542;37.950;-122.338;2023-02-04T06:48:19;102107.09;;;12.14;83.41
70009;BME280;59542;37.950;-122.338;2023-02-04T06:50:45;102105.56;;;11.67;86.13
70009;BME280;59542;37.950;-122.338;2023-02-04T06:53:11;102108.56;;;11.49;87.17
70009;BME280;59542;37.950;-122.338;2023-02-04T06:55:38;102109.03;;;11.53;87.00
70009;BME280;59542;37.950;-122.338;2023-02-04T06:58:04;102113.03;;;11.57;86.98
70009;BME280;59542;37.950;-122.338;2023-02-04T07:00:30;102098.53;;;11.81;85.69
70009;BME280;59542;37.950;-122.338;2023-02-04T07:02:56;102103.75;;;11.59;86.27
70009;BME280;59542;37.950;-122.338;2023-02-04T07:05:24;102102.53;;;11.47;86.45
70009;BME280;59542;37.950;-122.338;2023-02-04T07:07:50;102101.44;;;11.19;88.36
70009;BME280;59542;37.950;-122.338;2023-02-04T07:10:17;102098.75;;;10.96;89.49
70009;BME280;59542;37.950;-122.338;2023-02-04T07:12:45;102097.09;;;10.95;89.43
70009;BME280;59542;37.950;-122.338;2023-02-04T07:15:12;102105.66;;;10.90;89.83
70009;BME280;59542;37.950;-122.338;2023-02-04T07:17:38;102110.31;;;10.96;89.80
70009;BME280;59542;37.950;-122.338;2023-02-04T07:20:04;102111.75;;;11.07;89.23
70009;BME280;59542;37.950;-122.338;2023-02-04T07:22:31;102113.88;;;11.12;88.75
70009;BME280;59542;37.950;-122.338;2023-02-04T07:24:57;102116.88;;;11.17;88.11
70009;BME280;59542;37.950;-122.338;2023-02-04T07:27:23;102107.31;;;11.14;88.34
70009;BME280;59542;37.950;-122.338;2023-02-04T07:29:49;102108.75;;;11.02;89.03
70009;BME280;59542;37.950;-122.338;2023-02-04T07:32:16;102113.69;;;10.90;89.33
70009;BME280;59542;37.950;-122.338;2023-02-04T07:34:42;102110.72;;;11.08;88.86
70009;BME280;59542;37.950;-122.338;2023-02-04T07:37:08;102110.94;;;11.21;88.48
70009;BME280;59542;37.950;-122.338;2023-02-04T07:39:34;102113.69;;;11.13;88.51
70009;BME280;59542;37.950;-122.338;2023-02-04T07:42:00;102108.41;;;11.05;89.35
70009;BME280;59542;37.950;-122.338;2023-02-04T07:44:27;102109.25;;;11.05;89.95
70009;BME280;59542;37.950;-122.338;2023-02-04T07:46:53;102097.25;;;10.93;89.90
70009;BME280;59542;37.950;-122.338;2023-02-04T07:49:19;102105.84;;;10.89;90.78
70009;BME280;59542;37.950;-122.338;2023-02-04T07:51:45;102101.66;;;11.09;90.00
70009;BME280;59542;37.950;-122.338;2023-02-04T07:54:12;102099.19;;;11.07;90.03
70009;BME280;59542;37.950;-122.338;2023-02-04T07:56:38;102104.03;;;11.04;90.37
70009;BME280;59542;37.950;-122.338;2023-02-04T07:59:04;102098.16;;;11.08;90.09
70009;BME280;59542;37.950;-122.338;2023-02-04T08:01:30;102099.19;;;10.76;91.78
70009;BME280;59542;37.950;-122.338;2023-02-04T08:03:56;102095.13;;;10.89;92.01
70009;BME280;59542;37.950;-122.338;2023-02-04T08:06:23;102095.34;;;10.79;92.92
70009;BME280;59542;37.950;-122.338;2023-02-04T08:08:49;102095.28;;;11.10;91.57
70009;BME280;59542;37.950;-122.338;2023-02-04T08:11:15;102084.00;;;11.00;91.57
70009;BME280;59542;37.950;-122.338;2023-02-04T08:13:41;102081.03;;;11.18;91.21
70009;BME280;59542;37.950;-122.338;2023-02-04T08:16:08;102077.06;;;11.28;90.89
70009;BME280;59542;37.950;-122.338;2023-02-04T08:18:34;102080.59;;;11.44;90.19
70009;BME280;59542;37.950;-122.338;2023-02-04T08:21:00;102068.75;;;11.61;89.41
70009;BME280;59542;37.950;-122.338;2023-02-04T08:23:27;102074.56;;;11.64;88.69
70009;BME280;59542;37.950;-122.338;2023-02-04T08:25:53;102073.09;;;11.62;88.81
70009;BME280;59542;37.950;-122.338;2023-02-04T08:28:20;102072.72;;;11.80;87.79
70009;BME280;59542;37.950;-122.338;2023-02-04T08:30:46;102075.66;;;11.70;87.84
70009;BME280;59542;37.950;-122.338;2023-02-04T08:33:12;102076.09;;;11.97;86.05
70009;BME280;59542;37.950;-122.338;2023-02-04T08:35:38;102075.41;;;11.80;86.40
70009;BME280;59542;37.950;-122.338;2023-02-04T08:38:05;102077.22;;;12.02;85.50
70009;BME280;59542;37.950;-122.338;2023-02-04T08:40:31;102077.88;;;11.89;85.07
70009;BME280;59542;37.950;-122.338;2023-02-04T08:42:57;102084.00;;;11.75;85.79
70009;BME280;59542;37.950;-122.338;2023-02-04T08:45:23;102079.75;;;11.66;86.08
70009;BME280;59542;37.950;-122.338;2023-02-04T08:47:49;102072.78;;;11.57;86.38
70009;BME280;59542;37.950;-122.338;2023-02-04T08:50:16;102057.44;;;11.66;86.18
70009;BME280;59542;37.950;-122.338;2023-02-04T08:52:42;102060.09;;;11.13;87.41
70009;BME280;59542;37.950;-122.338;2023-02-04T08:55:09;102053.25;;;10.88;88.33
70009;BME280;59542;37.950;-122.338;2023-02-04T08:57:35;102047.88;;;11.33;86.76
70009;BME280;59542;37.950;-122.338;2023-02-04T09:00:02;102042.84;;;11.68;84.23
70009;BME280;59542;37.950;-122.338;2023-02-04T09:02:28;102042.66;;;11.70;83.44
70009;BME280;59542;37.950;-122.338;2023-02-04T09:04:55;102050.25;;;11.81;82.56
70009;BME280;59542;37.950;-122.338;2023-02-04T09:07:21;102051.97;;;11.44;84.00
70009;BME280;59542;37.950;-122.338;2023-02-04T09:09:47;102056.50;;;11.58;84.14
70009;BME280;59542;37.950;-122.338;2023-02-04T09:12:13;102055.41;;;11.53;84.11
70009;BME280;59542;37.950;-122.338;2023-02-04T09:14:39;102056.41;;;11.52;84.11
70009;BME280;59542;37.950;-122.338;2023-02-04T09:17:06;102061.69;;;11.60;83.33
70009;BME280;59542;37.950;-122.338;2023-02-04T09:19:32;102066.88;;;11.76;82.76
70009;BME280;59542;37.950;-122.338;2023-02-04T09:21:58;102063.00;;;11.64;82.86
70009;BME280;59542;37.950;-122.338;2023-02-04T09:24:24;102060.53;;;11.77;82.35
70009;BME280;59542;37.950;-122.338;2023-02-04T09:26:51;102067.09;;;11.75;81.87
70009;BME280;59542;37.950;-122.338;2023-02-04T09:29:17;102066.50;;;11.64;82.46
70009;BME280;59542;37.950;-122.338;2023-02-04T09:31:43;102063.06;;;11.41;82.83
70009;BME280;59542;37.950;-122.338;2023-02-04T09:34:09;102063.91;;;11.19;83.52
70009;BME280;59542;37.950;-122.338;2023-02-04T09:36:35;102064.44;;;11.14;83.25
70009;BME280;59542;37.950;-122.338;2023-02-04T09:39:04;102061.59;;;11.39;83.06
70009;BME280;59542;37.950;-122.338;2023-02-04T09:41:32;102047.91;;;11.48;83.17
70009;BME280;59542;37.950;-122.338;2023-02-04T09:43:59;102057.44;;;11.51;83.02
70009;BME280;59542;37.950;-122.338;2023-02-04T09:46:26;102055.34;;;11.61;82.64
70009;BME280;59542;37.950;-122.338;2023-02-04T09:48:57;102051.63;;;11.77;81.69
70009;BME280;59542;37.950;-122.338;2023-02-04T09:51:29;102061.72;;;11.75;81.45
70009;BME280;59542;37.950;-122.338;2023-02-04T09:54:11;102063.53;;;11.45;82.71
70009;BME280;59542;37.950;-122.338;2023-02-04T09:56:38;102052.97;;;11.43;83.10
70009;BME280;59542;37.950;-122.338;2023-02-04T09:59:21;102053.94;;;11.50;83.28
70009;BME280;59542;37.950;-122.338;2023-02-04T10:02:18;102063.91;;;11.56;82.67
70009;BME280;59542;37.950;-122.338;2023-02-04T10:04:46;102057.34;;;11.59;82.38
70009;BME280;59542;37.950;-122.338;2023-02-04T10:07:21;102062.13;;;11.49;82.94
70009;BME280;59542;37.950;-122.338;2023-02-04T10:09:51;102057.72;;;11.18;84.38
70009;BME280;59542;37.950;-122.338;2023-02-04T10:12:19;102048.25;;;11.30;84.03
70009;BME280;59542;37.950;-122.338;2023-02-04T10:14:46;102035.59;;;10.78;86.11
70009;BME280;59542;37.950;-122.338;2023-02-04T10:17:18;102041.41;;;10.82;85.14
70009;BME280;59542;37.950;-122.338;2023-02-04T10:19:45;102044.81;;;10.76;84.56
70009;BME280;59542;37.950;-122.338;2023-02-04T10:22:20;102041.38;;;10.90;84.18
70009;BME280;59542;37.950;-122.338;2023-02-04T10:24:47;102044.50;;;11.17;83.05
70009;BME280;59542;37.950;-122.338;2023-02-04T10:27:13;102042.81;;;11.01;82.00
70009;BME280;59542;37.950;-122.338;2023-02-04T10:29:56;102035.19;;;10.90;82.22
70009;BME280;59542;37.950;-122.338;2023-02-04T10:32:31;102042.66;;;10.71;82.72
70009;BME280;59542;37.950;-122.338;2023-02-04T10:34:59;102036.84;;;10.91;82.04
70009;BME280;59542;37.950;-122.338;2023-02-04T10:37:26;102033.63;;;10.95;82.23
70009;BME280;59542;37.950;-122.338;2023-02-04T10:39:52;102030.75;;;10.97;82.04
70009;BME280;59542;37.950;-122.338;2023-02-04T10:44:50;102031.13;;;11.17;80.62
70009;BME280;59542;37.950;-122.338;2023-02-04T10:47:22;102021.91;;;10.96;81.14
70009;BME280;59542;37.950;-122.338;2023-02-04T10:50:01;102030.03;;;11.03;81.20
70009;BME280;59542;37.950;-122.338;2023-02-04T10:52:40;102023.00;;;11.25;80.16
70009;BME280;59542;37.950;-122.338;2023-02-04T10:55:14;102028.31;;;11.10;80.22
70009;BME280;59542;37.950;-122.338;2023-02-04T10:57:43;102023.03;;;11.40;79.28
70009;BME280;59542;37.950;-122.338;2023-02-04T11:05:35;102019.66;;;11.23;80.31
70009;BME280;59542;37.950;-122.338;2023-02-04T11:08:03;102027.59;;;11.16;80.62
70009;BME280;59542;37.950;-122.338;2023-02-04T11:10:44;102016.59;;;11.26;80.68
70009;BME280;59542;37.950;-122.338;2023-02-04T11:13:24;102016.34;;;10.98;81.54
70009;BME280;59542;37.950;-122.338;2023-02-04T11:18:52;102015.94;;;10.40;84.07
70009;BME280;59542;37.950;-122.338;2023-02-04T11:21:25;102002.06;;;10.60;83.61
70009;BME280;59542;37.950;-122.338;2023-02-04T11:26:44;101993.88;;;10.84;82.92
70009;BME280;59542;37.950;-122.338;2023-02-04T11:29:26;101993.91;;;10.99;82.75
70009;BME280;59542;37.950;-122.338;2023-02-04T11:31:56;101990.41;;;10.98;82.39
70009;BME280;59542;37.950;-122.338;2023-02-04T11:34:23;101987.19;;;11.03;82.35
70009;BME280;59542;37.950;-122.338;2023-02-04T11:39:21;102001.19;;;11.28;81.40
70009;BME280;59542;37.950;-122.338;2023-02-04T11:41:49;101994.06;;;11.20;81.04
70009;BME280;59542;37.950;-122.338;2023-02-04T11:44:16;101995.50;;;11.08;81.26
70009;BME280;59542;37.950;-122.338;2023-02-04T11:46:50;101992.25;;;10.98;82.11
70009;BME280;59542;37.950;-122.338;2023-02-04T11:49:21;102005.34;;;10.93;81.98
70009;BME280;59542;37.950;-122.338;2023-02-04T11:51:49;101998.13;;;11.31;80.31
70009;BME280;59542;37.950;-122.338;2023-02-04T11:54:17;102004.09;;;10.80;81.82
70009;BME280;59542;37.950;-122.338;2023-02-04T11:56:47;102002.31;;;10.96;81.81
70009;BME280;59542;37.950;-122.338;2023-02-04T11:59:14;102004.31;;;11.17;81.03
70009;BME280;59542;37.950;-122.338;2023-02-04T12:01:42;102014.25;;;11.08;81.24
70009;BME280;59542;37.950;-122.338;2023-02-04T12:04:22;102003.84;;;11.13;81.25
70009;BME280;59542;37.950;-122.338;2023-02-04T12:07:02;102003.75;;;11.06;81.52
70009;BME280;59542;37.950;-122.338;2023-02-04T12:09:30;102003.34;;;11.09;81.32
70009;BME280;59542;37.950;-122.338;2023-02-04T12:11:59;102001.25;;;11.20;81.12
70009;BME280;59542;37.950;-122.338;2023-02-04T12:14:43;102001.84;;;11.30;80.26
70009;BME280;59542;37.950;-122.338;2023-02-04T12:17:17;101998.81;;;11.33;80.35
70009;BME280;59542;37.950;-122.338;2023-02-04T12:19:44;102006.00;;;11.32;80.21
70009;BME280;59542;37.950;-122.338;2023-02-04T12:22:10;101998.06;;;11.39;79.98
70009;BME280;59542;37.950;-122.338;2023-02-04T12:24:36;101993.00;;;11.59;79.21
70009;BME280;59542;37.950;-122.338;2023-02-04T12:27:02;102000.47;;;11.49;79.22
70009;BME280;59542;37.950;-122.338;2023-02-04T12:29:29;102001.31;;;11.49;79.33
70009;BME280;59542;37.950;-122.338;2023-02-04T12:31:55;101987.34;;;11.54;79.27
70009;BME280;59542;37.950;-122.338;2023-02-04T12:34:21;101998.53;;;11.43;80.17
70009;BME280;59542;37.950;-122.338;2023-02-04T12:36:47;101992.16;;;11.58;80.45
70009;BME280;59542;37.950;-122.338;2023-02-04T12:39:14;101990.66;;;11.41;80.70